createdAt,value
2019-02-27T00:01:34.933Z,42.83
2019-02-27T00:04:03.082Z,43.75
2019-02-27T00:06:31.796Z,42.88
2019-02-27T00:09:00.527Z,44.10
2019-02-27T00:11:31.059Z,42.88
2019-02-27T00:13:59.095Z,43.02
2019-02-27T00:16:27.463Z,42.00
2019-02-27T00:18:58.524Z,44.10
2019-02-27T00:21:25.870Z,45.60
2019-02-27T00:23:56.746Z,44.03
2019-02-27T00:26:24.295Z,43.95
2019-02-27T00:28:55.992Z,45.15
2019-02-27T00:31:23.421Z,46.55
2019-02-27T00:33:52.276Z,43.15
2019-02-27T00:36:20.328Z,41.90
2019-02-27T00:38:48.402Z,41.48
2019-02-27T00:41:16.491Z,42.85
2019-02-27T00:43:45.055Z,44.20
2019-02-27T00:46:13.301Z,41.75
2019-02-27T00:48:42.428Z,41.05
2019-02-27T00:51:11.967Z,42.48
2019-02-27T00:53:41.469Z,43.78
2019-02-27T00:56:11.986Z,42.90
2019-02-27T00:58:39.976Z,43.28
2019-02-27T01:01:10.032Z,41.70
2019-02-27T01:03:37.736Z,43.63
2019-02-27T01:06:05.776Z,43.75
2019-02-27T01:08:34.607Z,43.70
2019-02-27T01:11:03.383Z,42.00
2019-02-27T01:13:31.854Z,44.00
2019-02-27T01:16:00.341Z,44.80
2019-02-27T01:18:30.757Z,44.38
2019-02-27T01:20:58.734Z,43.90
2019-02-27T01:23:27.559Z,44.17
2019-02-27T01:25:56.889Z,45.10
2019-02-27T01:28:25.922Z,45.70
2019-02-27T01:30:54.622Z,43.20
2019-02-27T01:33:23.020Z,42.60
2019-02-27T01:35:52.304Z,46.15
2019-02-27T01:38:20.775Z,44.85
2019-02-27T01:40:51.146Z,43.63
2019-02-27T01:43:19.101Z,42.80
2019-02-27T01:45:47.145Z,43.00
2019-02-27T01:48:15.237Z,43.38
2019-02-27T01:50:43.619Z,42.08
2019-02-27T01:53:11.952Z,41.40
2019-02-27T01:55:40.281Z,41.33
2019-02-27T01:58:09.604Z,41.18
2019-02-27T02:00:39.296Z,41.95
2019-02-27T02:03:07.357Z,41.15
2019-02-27T02:05:35.743Z,41.73
2019-02-27T02:08:04.152Z,42.30
2019-02-27T02:10:32.196Z,40.60
2019-02-27T02:13:02.675Z,40.50
2019-02-27T02:15:50.420Z,39.77
2019-02-27T02:18:40.648Z,40.30
2019-02-27T02:21:21.156Z,41.40
2019-02-27T02:24:08.296Z,40.05
2019-02-27T02:26:47.042Z,41.00
2019-02-27T02:29:34.161Z,43.58
2019-02-27T02:32:07.435Z,44.50
2019-02-27T02:35:03.553Z,40.80
2019-02-27T02:37:56.673Z,41.15
2019-02-27T02:40:43.000Z,40.87
2019-02-27T02:43:22.603Z,40.50
2019-02-27T02:45:57.169Z,39.75
2019-02-27T02:48:47.892Z,40.67
2019-02-27T02:51:20.485Z,40.10
2019-02-27T02:54:00.120Z,40.33
2019-02-27T02:56:36.857Z,39.30
2019-02-27T02:59:24.943Z,41.33
2019-02-27T03:01:55.008Z,40.08
2019-02-27T03:04:49.197Z,40.28
2019-02-27T03:07:44.748Z,39.60
2019-02-27T03:10:24.537Z,39.70
2019-02-27T03:13:05.781Z,40.10
2019-02-27T03:15:43.193Z,40.43
2019-02-27T03:18:34.083Z,39.30
2019-02-27T03:21:28.538Z,38.90
2019-02-27T03:24:27.856Z,38.92
2019-02-27T03:27:14.908Z,39.67
2019-02-27T03:30:08.149Z,39.95
2019-02-27T03:32:58.445Z,39.00
2019-02-27T03:35:32.426Z,40.05
2019-02-27T03:38:24.023Z,39.03
2019-02-27T03:41:14.453Z,39.90
2019-02-27T03:44:10.560Z,39.80
2019-02-27T03:46:50.174Z,40.60
2019-02-27T03:49:40.966Z,39.98
2019-02-27T03:52:46.433Z,40.28
2019-02-27T03:55:33.142Z,39.17
2019-02-27T03:58:19.128Z,39.03
2019-02-27T04:01:18.464Z,38.70
2019-02-27T04:04:11.500Z,38.80
2019-02-27T04:06:53.107Z,39.27
2019-02-27T04:09:22.680Z,39.13
2019-02-27T04:11:51.077Z,40.12
2019-02-27T04:14:32.529Z,40.23
2019-02-27T04:17:05.478Z,40.40
2019-02-27T04:19:30.393Z,41.20
2019-02-27T04:22:01.138Z,39.60
2019-02-27T04:24:28.136Z,40.33
2019-02-27T04:26:56.459Z,39.35
2019-02-27T04:29:24.503Z,40.83
2019-02-27T04:31:52.588Z,41.50
2019-02-27T04:34:21.301Z,40.00
2019-02-27T04:36:49.889Z,39.78
2019-02-27T04:39:18.529Z,40.35
2019-02-27T04:41:46.865Z,40.03
2019-02-27T04:44:15.245Z,42.35
2019-02-27T04:46:43.291Z,40.35
2019-02-27T04:49:11.329Z,39.33
2019-02-27T04:51:39.963Z,40.08
2019-02-27T04:54:08.325Z,40.40
2019-02-27T04:56:36.705Z,39.03
2019-02-27T04:59:05.093Z,40.17
2019-02-27T05:01:36.398Z,41.18
2019-02-27T05:04:03.503Z,39.18
2019-02-27T05:06:32.489Z,39.38
2019-02-27T05:09:01.176Z,38.80
2019-02-27T05:11:29.277Z,39.00
2019-02-27T05:13:57.311Z,38.48
2019-02-27T05:16:26.025Z,41.00
2019-02-27T05:18:54.071Z,38.83
2019-02-27T05:21:22.368Z,39.33
2019-02-27T05:23:51.370Z,39.30
2019-02-27T05:26:19.422Z,37.63
2019-02-27T05:28:48.209Z,38.33
2019-02-27T05:31:19.003Z,38.25
2019-02-27T05:33:46.461Z,37.23
2019-02-27T05:36:14.876Z,37.13
2019-02-27T05:38:43.615Z,35.20
2019-02-27T05:41:12.489Z,38.53
2019-02-27T05:43:40.840Z,37.38
2019-02-27T05:46:09.629Z,39.48
2019-02-27T05:48:38.022Z,35.60
2019-02-27T05:51:07.586Z,37.00
2019-02-27T05:53:36.353Z,36.45
2019-02-27T05:56:04.789Z,34.50
2019-02-27T05:58:33.177Z,34.45
2019-02-27T06:01:02.084Z,35.75
2019-02-27T06:03:31.900Z,36.90
2019-02-27T06:06:00.359Z,34.03
2019-02-27T06:08:29.041Z,35.63
2019-02-27T06:10:57.127Z,35.70
2019-02-27T06:13:25.504Z,35.28
2019-02-27T06:15:53.598Z,37.08
2019-02-27T06:18:23.402Z,35.20
2019-02-27T06:20:51.952Z,35.50
2019-02-27T06:23:20.335Z,34.80
2019-02-27T06:25:48.701Z,36.38
2019-02-27T06:28:18.704Z,35.45
2019-02-27T06:30:46.697Z,34.85
2019-02-27T06:33:15.288Z,34.08
2019-02-27T06:35:43.968Z,33.92
2019-02-27T06:38:12.064Z,34.70
2019-02-27T06:40:42.312Z,32.88
2019-02-27T06:43:10.648Z,34.60
2019-02-27T06:45:38.658Z,32.35
2019-02-27T06:48:10.243Z,34.50
2019-02-27T06:50:37.288Z,35.38
2019-02-27T06:53:05.324Z,34.20
2019-02-27T06:55:33.966Z,35.70
2019-02-27T06:58:02.409Z,34.58
2019-02-27T07:00:35.950Z,29.00
2019-02-27T07:03:00.851Z,29.90
2019-02-27T07:05:28.914Z,28.87
2019-02-27T07:07:57.186Z,27.10
2019-02-27T07:10:28.188Z,29.77
2019-02-27T07:12:56.955Z,31.82
2019-02-27T07:15:26.025Z,29.77
2019-02-27T07:17:54.804Z,26.40
2019-02-27T07:20:24.527Z,29.57
2019-02-27T07:22:54.055Z,27.67
2019-02-27T07:25:22.390Z,30.07
2019-02-27T07:27:51.098Z,30.70
2019-02-27T07:30:19.441Z,30.50
2019-02-27T07:32:47.476Z,30.65
2019-02-27T07:35:15.693Z,35.48
2019-02-27T07:37:46.998Z,35.90
2019-02-27T07:40:14.521Z,27.73
2019-02-27T07:42:42.672Z,26.90
2019-02-27T07:45:11.987Z,26.15
2019-02-27T07:47:40.399Z,24.53
2019-02-27T07:50:09.600Z,26.73
2019-02-27T07:52:38.380Z,27.80
2019-02-27T07:55:18.578Z,26.02
2019-02-27T07:57:37.129Z,27.07
2019-02-27T08:00:05.718Z,26.60
2019-02-27T08:02:36.180Z,25.23
2019-02-27T08:05:04.527Z,24.52
2019-02-27T08:07:32.564Z,25.65
2019-02-27T08:10:04.535Z,24.85
2019-02-27T08:12:31.137Z,24.30
2019-02-27T08:14:59.929Z,25.15
2019-02-27T08:17:28.464Z,23.98
2019-02-27T08:19:56.920Z,23.60
2019-02-27T08:22:25.271Z,23.80
2019-02-27T08:24:53.699Z,23.60
2019-02-27T08:27:21.724Z,29.30
2019-02-27T08:29:49.802Z,26.48
2019-02-27T08:32:17.875Z,26.68
2019-02-27T08:34:45.992Z,26.00
2019-02-27T08:37:14.732Z,24.05
2019-02-27T08:39:43.089Z,25.05
2019-02-27T08:42:11.550Z,24.55
2019-02-27T08:44:39.960Z,23.95
2019-02-27T08:47:10.322Z,23.27
2019-02-27T08:49:38.393Z,27.13
2019-02-27T08:52:08.371Z,24.43
2019-02-27T08:54:36.461Z,23.85
2019-02-27T08:57:04.489Z,23.32
2019-02-27T08:59:32.544Z,24.32
2019-02-27T09:02:00.656Z,24.47
2019-02-27T09:04:29.171Z,24.07
2019-02-27T09:07:02.151Z,26.17
2019-02-27T09:09:27.962Z,25.02
2019-02-27T09:11:55.997Z,23.80
2019-02-27T09:14:24.114Z,23.60
2019-02-27T09:16:52.483Z,24.27
2019-02-27T09:19:20.931Z,23.90
2019-02-27T09:21:49.390Z,24.15
2019-02-27T09:24:17.464Z,24.67
2019-02-27T09:26:45.809Z,24.40
2019-02-27T09:29:18.423Z,24.82
2019-02-27T09:31:50.732Z,25.72
2019-02-27T09:34:13.950Z,25.12
2019-02-27T09:36:43.285Z,24.87
2019-02-27T09:39:11.869Z,24.50
2019-02-27T09:41:39.956Z,24.65
2019-02-27T09:44:08.508Z,25.00
2019-02-27T09:46:37.081Z,24.20
2019-02-27T09:49:07.079Z,25.55
2019-02-27T09:51:34.833Z,24.65
2019-02-27T09:54:03.586Z,24.82
2019-02-27T09:56:32.790Z,24.70
2019-02-27T09:59:00.860Z,24.30
2019-02-27T10:01:29.265Z,24.70
2019-02-27T10:03:57.710Z,24.20
2019-02-27T10:06:26.045Z,23.32
2019-02-27T10:08:56.487Z,23.83
2019-02-27T10:11:24.716Z,24.57
2019-02-27T10:13:52.787Z,23.47
2019-02-27T10:16:21.226Z,24.67
2019-02-27T10:18:54.819Z,25.00
2019-02-27T10:21:19.868Z,23.70
2019-02-27T10:23:48.207Z,24.27
2019-02-27T10:26:16.572Z,24.00
2019-02-27T10:28:46.781Z,23.70
2019-02-27T10:31:14.836Z,23.73
2019-02-27T10:33:43.672Z,24.20
2019-02-27T10:36:11.822Z,24.32
2019-02-27T10:38:41.007Z,23.10
2019-02-27T10:41:09.316Z,23.38
2019-02-27T10:43:37.651Z,23.83
2019-02-27T10:46:06.309Z,23.30
2019-02-27T10:48:36.807Z,23.55
2019-02-27T10:51:04.927Z,23.65
2019-02-27T10:53:33.550Z,23.32
2019-02-27T10:56:01.596Z,24.02
2019-02-27T10:58:29.656Z,22.87
2019-02-27T11:01:00.752Z,23.38
2019-02-27T11:03:27.470Z,23.05
2019-02-27T11:05:56.228Z,22.65
2019-02-27T11:08:28.910Z,22.20
2019-02-27T11:10:54.838Z,21.80
2019-02-27T11:13:22.864Z,22.48
2019-02-27T11:15:50.955Z,22.23
2019-02-27T11:18:19.672Z,21.40
2019-02-27T11:20:47.777Z,22.22
2019-02-27T11:23:16.129Z,21.33
2019-02-27T11:25:44.493Z,21.65
2019-02-27T11:28:12.864Z,21.85
2019-02-27T11:30:41.236Z,21.07
2019-02-27T11:33:09.733Z,21.50
2019-02-27T11:35:37.803Z,21.42
2019-02-27T11:38:06.733Z,20.40
2019-02-27T11:40:34.824Z,21.50
2019-02-27T11:43:06.580Z,20.17
2019-02-27T11:45:33.984Z,20.32
2019-02-27T11:48:02.405Z,20.80
2019-02-27T11:50:30.484Z,21.15
2019-02-27T11:53:02.789Z,21.17
2019-02-27T11:55:29.081Z,21.30
2019-02-27T11:57:57.183Z,19.20
2019-02-27T12:00:27.145Z,18.50
2019-02-27T12:02:55.411Z,18.70
2019-02-27T12:05:23.399Z,19.07
2019-02-27T12:07:52.093Z,19.23
2019-02-27T12:10:21.273Z,18.80
2019-02-27T12:12:49.375Z,19.47
2019-02-27T12:15:17.802Z,20.43
2019-02-27T12:17:47.035Z,19.70
2019-02-27T12:20:18.161Z,19.87
2019-02-27T12:22:46.433Z,19.20
2019-02-27T12:25:14.751Z,18.70
2019-02-27T12:27:49.126Z,19.70
2019-02-27T12:30:13.735Z,18.67
2019-02-27T12:32:41.868Z,19.30
2019-02-27T12:35:11.461Z,18.63
2019-02-27T12:37:39.909Z,18.23
2019-02-27T12:40:08.935Z,17.02
2019-02-27T12:42:37.627Z,17.45
2019-02-27T12:45:08.100Z,16.30
2019-02-27T12:47:37.620Z,16.75
2019-02-27T12:50:06.504Z,17.30
2019-02-27T12:52:35.181Z,16.90
2019-02-27T12:55:03.221Z,17.23
2019-02-27T12:57:31.252Z,16.55
2019-02-27T12:59:59.715Z,16.77
2019-02-27T13:02:35.415Z,16.50
2019-02-27T13:04:58.202Z,16.95
2019-02-27T13:07:27.696Z,16.90
2019-02-27T13:09:58.460Z,16.40
2019-02-27T13:12:25.810Z,16.02
2019-02-27T13:14:53.841Z,16.67
2019-02-27T13:17:22.277Z,16.10
2019-02-27T13:19:50.629Z,15.13
2019-02-27T13:22:19.317Z,15.50
2019-02-27T13:24:50.184Z,14.60
2019-02-27T13:27:17.401Z,15.53
2019-02-27T13:29:45.477Z,15.55
2019-02-27T13:32:13.853Z,14.73
2019-02-27T13:34:41.891Z,15.23
2019-02-27T13:37:10.434Z,15.43
2019-02-27T13:39:38.896Z,15.35
2019-02-27T13:42:07.285Z,13.90
2019-02-27T13:44:35.755Z,14.35
2019-02-27T13:47:03.820Z,14.60
2019-02-27T13:49:32.194Z,13.83
2019-02-27T13:52:00.888Z,13.00
2019-02-27T13:54:29.602Z,13.70
2019-02-27T13:56:57.675Z,14.05
2019-02-27T13:59:25.756Z,13.38
2019-02-27T14:01:54.105Z,13.98
2019-02-27T14:04:22.748Z,14.07
2019-02-27T14:06:50.869Z,14.00
2019-02-27T14:09:19.256Z,16.00
2019-02-27T14:11:47.320Z,14.20
2019-02-27T14:14:17.625Z,14.68
2019-02-27T14:16:45.718Z,14.70
2019-02-27T14:19:13.715Z,13.58
2019-02-27T14:21:42.269Z,13.25
2019-02-27T14:24:10.975Z,13.13
2019-02-27T14:26:41.455Z,12.82
2019-02-27T14:29:09.967Z,14.03
2019-02-27T14:31:40.089Z,13.73
2019-02-27T14:34:08.327Z,13.35
2019-02-27T14:36:39.394Z,13.10
2019-02-27T14:39:08.831Z,12.65
2019-02-27T14:41:37.043Z,11.93
2019-02-27T14:44:05.104Z,11.70
2019-02-27T14:46:33.272Z,12.13
2019-02-27T14:49:02.913Z,11.85
2019-02-27T14:51:31.063Z,12.55
2019-02-27T14:54:01.567Z,11.50
2019-02-27T14:56:29.751Z,11.93
2019-02-27T14:58:57.951Z,11.38
2019-02-27T15:01:27.052Z,12.10
2019-02-27T15:03:55.266Z,12.30
2019-02-27T15:06:25.104Z,12.15
2019-02-27T15:08:58.021Z,12.20
2019-02-27T15:11:23.427Z,12.37
2019-02-27T15:13:51.899Z,12.20
2019-02-27T15:16:21.835Z,22.17
2019-02-27T15:18:55.063Z,25.85
2019-02-27T15:21:20.888Z,14.05
2019-02-27T15:23:49.477Z,16.45
2019-02-27T15:26:18.309Z,14.03
2019-02-27T15:28:46.511Z,19.50
2019-02-27T15:31:18.059Z,20.00
2019-02-27T15:33:46.344Z,17.93
2019-02-27T15:36:15.377Z,21.75
2019-02-27T15:38:46.142Z,19.55
2019-02-27T15:41:13.888Z,39.18
2019-02-27T15:43:42.718Z,25.32
2019-02-27T15:46:10.939Z,15.80
2019-02-27T15:48:40.955Z,15.75
2019-02-27T15:51:09.225Z,15.80
2019-02-27T15:53:37.339Z,14.10
2019-02-27T15:56:07.954Z,16.77
2019-02-27T15:58:35.748Z,87.42
2019-02-27T16:01:04.487Z,21.60
2019-02-27T16:03:32.605Z,17.42
2019-02-27T16:06:05.053Z,13.65
2019-02-27T16:08:30.489Z,15.70
2019-02-27T16:11:00.539Z,14.63
2019-02-27T16:13:28.651Z,13.75
2019-02-27T16:15:57.463Z,14.00
2019-02-27T16:18:26.203Z,14.00
2019-02-27T16:20:54.313Z,14.00
2019-02-27T16:23:22.928Z,13.50
2019-02-27T16:25:54.098Z,14.07
2019-02-27T16:28:20.740Z,13.85
2019-02-27T16:30:49.625Z,13.93
2019-02-27T16:33:23.117Z,13.78
2019-02-27T16:35:48.337Z,13.13
2019-02-27T16:38:16.751Z,14.07
2019-02-27T16:40:45.303Z,13.83
2019-02-27T16:43:14.455Z,13.58
2019-02-27T16:45:44.615Z,13.90
2019-02-27T16:48:12.855Z,14.93
2019-02-27T16:50:40.877Z,14.47
2019-02-27T16:53:09.957Z,13.55
2019-02-27T16:55:39.571Z,13.70
2019-02-27T16:58:07.848Z,13.90
2019-02-27T17:00:36.369Z,14.45
2019-02-27T17:03:04.423Z,16.87
2019-02-27T17:05:33.304Z,13.43
2019-02-27T17:08:02.717Z,13.65
2019-02-27T17:10:31.049Z,13.43
2019-02-27T17:12:59.561Z,13.28
2019-02-27T17:15:27.604Z,13.25
2019-02-27T17:17:55.692Z,12.60
2019-02-27T17:20:24.399Z,20.90
2019-02-27T17:22:52.876Z,18.02
2019-02-27T17:25:21.087Z,13.90
2019-02-27T17:27:51.220Z,12.50
2019-02-27T17:30:20.476Z,13.72
2019-02-27T17:32:48.533Z,13.25
2019-02-27T17:35:16.959Z,13.05
2019-02-27T17:37:45.448Z,13.22
2019-02-27T17:40:13.665Z,12.73
2019-02-27T17:42:41.724Z,13.53
2019-02-27T17:45:13.105Z,13.03
2019-02-27T17:47:40.675Z,13.25
2019-02-27T17:50:09.660Z,13.00
2019-02-27T17:52:37.744Z,13.03
2019-02-27T17:55:06.691Z,76.28
2019-02-27T17:57:35.882Z,42.97
2019-02-27T18:00:04.275Z,17.42
2019-02-27T18:02:33.198Z,14.80
2019-02-27T18:05:01.982Z,13.87
2019-02-27T18:07:34.319Z,12.33
2019-02-27T18:10:02.325Z,12.30
2019-02-27T18:12:30.850Z,12.00
2019-02-27T18:14:59.968Z,11.18
2019-02-27T18:17:29.191Z,12.43
2019-02-27T18:19:58.388Z,11.95
2019-02-27T18:22:27.083Z,11.10
2019-02-27T18:24:55.478Z,12.50
2019-02-27T18:27:25.428Z,21.93
2019-02-27T18:29:53.945Z,16.10
2019-02-27T18:32:22.436Z,11.63
2019-02-27T18:34:54.397Z,10.40
2019-02-27T18:37:20.512Z,11.50
2019-02-27T18:39:48.582Z,10.80
2019-02-27T18:42:17.257Z,11.00
2019-02-27T18:44:46.984Z,10.72
2019-02-27T18:47:15.360Z,10.90
2019-02-27T18:49:43.712Z,9.90
2019-02-27T18:52:11.800Z,10.45
2019-02-27T18:54:40.727Z,10.80
2019-02-27T18:57:11.896Z,10.32
2019-02-27T18:59:41.391Z,10.88
2019-02-27T19:02:09.827Z,10.23
2019-02-27T19:04:38.154Z,10.10
2019-02-27T19:07:06.263Z,10.53
2019-02-27T19:09:34.828Z,10.40
2019-02-27T19:12:03.003Z,10.93
2019-02-27T19:14:31.543Z,10.63
2019-02-27T19:17:01.337Z,11.18
2019-02-27T19:19:29.558Z,9.85
2019-02-27T19:21:57.684Z,10.68
2019-02-27T19:24:27.567Z,21.02
2019-02-27T19:26:55.775Z,14.05
2019-02-27T19:29:24.081Z,10.00
2019-02-27T19:31:52.291Z,9.70
2019-02-27T19:34:20.742Z,10.40
2019-02-27T19:36:48.941Z,9.53
2019-02-27T19:39:18.324Z,9.83
2019-02-27T19:41:48.201Z,9.73
2019-02-27T19:44:16.246Z,9.60
2019-02-27T19:46:47.461Z,9.40
2019-02-27T19:49:15.305Z,9.90
2019-02-27T19:51:45.081Z,9.80
2019-02-27T19:54:14.881Z,9.40
2019-02-27T19:56:43.979Z,9.40
2019-02-27T19:59:12.038Z,10.08
2019-02-27T20:01:46.277Z,10.32
2019-02-27T20:04:10.647Z,10.35
2019-02-27T20:06:38.817Z,10.32
2019-02-27T20:09:07.267Z,9.78
2019-02-27T20:11:39.923Z,10.10
2019-02-27T20:14:05.640Z,12.18
2019-02-27T20:16:33.881Z,19.00
2019-02-27T20:19:02.921Z,12.98
2019-02-27T20:21:31.064Z,12.70
2019-02-27T20:24:01.427Z,10.85
2019-02-27T20:26:29.471Z,11.28
2019-02-27T20:28:57.867Z,11.45
2019-02-27T20:31:26.661Z,11.68
2019-02-27T20:33:55.136Z,11.90
2019-02-27T20:36:29.714Z,11.28
2019-02-27T20:38:54.521Z,11.85
2019-02-27T20:41:23.081Z,11.10
2019-02-27T20:43:51.353Z,15.03
2019-02-27T20:46:19.537Z,12.37
2019-02-27T20:48:48.228Z,12.35
2019-02-27T20:51:16.619Z,12.85
2019-02-27T20:53:44.684Z,12.30
2019-02-27T20:56:12.878Z,37.95
2019-02-27T20:58:40.899Z,12.60
2019-02-27T21:01:11.030Z,11.90
2019-02-27T21:03:39.423Z,11.70
2019-02-27T21:06:07.921Z,12.40
2019-02-27T21:08:36.830Z,11.40
2019-02-27T21:11:05.377Z,11.90
2019-02-27T21:13:33.490Z,12.45
2019-02-27T21:16:03.964Z,14.23
2019-02-27T21:18:32.559Z,15.60
2019-02-27T21:21:01.402Z,17.57
2019-02-27T21:23:31.854Z,14.20
2019-02-27T21:25:59.816Z,13.60
2019-02-27T21:28:27.852Z,11.93
2019-02-27T21:30:56.673Z,13.20
2019-02-27T21:33:25.260Z,11.75
2019-02-27T21:35:53.835Z,12.25
2019-02-27T21:38:22.297Z,12.60
2019-02-27T21:40:50.549Z,12.60
2019-02-27T21:43:19.120Z,12.82
2019-02-27T21:45:47.692Z,12.20
2019-02-27T21:48:15.871Z,12.95
2019-02-27T21:50:45.262Z,12.58
2019-02-27T21:53:13.683Z,13.00
2019-02-27T21:55:44.738Z,12.37
2019-02-27T21:58:20.039Z,13.08
2019-02-27T22:00:42.037Z,13.10
2019-02-27T22:03:10.262Z,13.18
2019-02-27T22:05:42.856Z,14.00
2019-02-27T22:08:09.129Z,13.10
2019-02-27T22:10:37.658Z,13.90
2019-02-27T22:13:09.299Z,14.53
2019-02-27T22:15:35.980Z,17.15
2019-02-27T22:18:03.987Z,18.93
2019-02-27T22:20:32.380Z,16.97
2019-02-27T22:23:00.828Z,23.92
2019-02-27T22:25:31.035Z,25.50
2019-02-27T22:27:59.517Z,16.30
2019-02-27T22:30:27.954Z,16.42
2019-02-27T22:32:56.381Z,15.15
2019-02-27T22:35:25.189Z,14.20
2019-02-27T22:37:53.287Z,15.35
2019-02-27T22:40:21.975Z,14.38
2019-02-27T22:42:52.086Z,15.38
2019-02-27T22:45:20.527Z,14.80
2019-02-27T22:47:49.821Z,14.90
2019-02-27T22:50:20.283Z,14.73
2019-02-27T22:52:54.185Z,14.50
2019-02-27T22:55:18.340Z,15.03
2019-02-27T22:57:47.147Z,14.55
2019-02-27T23:00:29.463Z,15.10
2019-02-27T23:02:57.777Z,15.40
2019-02-27T23:05:25.881Z,16.40
2019-02-27T23:07:54.525Z,16.42
2019-02-27T23:10:23.382Z,15.63
2019-02-27T23:12:54.803Z,15.43
2019-02-27T23:15:24.761Z,15.55
2019-02-27T23:17:53.493Z,15.63
2019-02-27T23:20:21.687Z,16.50
2019-02-27T23:22:49.854Z,16.15
2019-02-27T23:25:18.038Z,16.80
2019-02-27T23:27:46.380Z,17.13
2019-02-27T23:30:15.901Z,16.73
2019-02-27T23:32:44.245Z,16.10
2019-02-27T23:35:15.700Z,16.27
2019-02-27T23:37:42.552Z,16.90
2019-02-27T23:40:10.974Z,16.25
2019-02-27T23:42:39.104Z,16.80
2019-02-27T23:45:10.309Z,17.65
2019-02-27T23:47:39.434Z,17.48
2019-02-27T23:50:10.857Z,17.30
2019-02-27T23:52:37.637Z,17.67
2019-02-27T23:55:07.177Z,17.30
2019-02-27T23:57:36.686Z,17.00
